sensor_id;sensor_type;location;lat;lon;timestamp;P1;durP1;ratioP1;P2;durP2;ratioP2
11171;SDS011;5642;50.830;12.082;2022-08-21T00:00:41;3.50;;;3.20;;
11171;SDS011;5642;50.830;12.082;2022-08-21T00:03:08;3.75;;;3.45;;
11171;SDS011;5642;50.830;12.082;2022-08-21T00:05:45;3.25;;;2.92;;
11171;SDS011;5642;50.830;12.082;2022-08-21T00:08:16;3.20;;;3.00;;
11171;SDS011;5642;50.830;12.082;2022-08-21T00:10:43;3.08;;;2.88;;
11171;SDS011;5642;50.830;12.082;2022-08-21T00:13:10;3.13;;;2.92;;
11171;SDS011;5642;50.830;12.082;2022-08-21T00:15:38;3.35;;;3.15;;
11171;SDS011;5642;50.830;12.082;2022-08-21T00:18:07;3.50;;;3.22;;
11171;SDS011;5642;50.830;12.082;2022-08-21T00:20:36;3.40;;;3.20;;
11171;SDS011;5642;50.830;12.082;2022-08-21T00:23:04;3.78;;;3.47;;
11171;SDS011;5642;50.830;12.082;2022-08-21T00:25:31;3.67;;;3.30;;
11171;SDS011;5642;50.830;12.082;2022-08-21T00:27:57;3.90;;;3.60;;
11171;SDS011;5642;50.830;12.082;2022-08-21T00:30:25;3.50;;;3.20;;
11171;SDS011;5642;50.830;12.082;2022-08-21T00:32:53;4.70;;;3.30;;
11171;SDS011;5642;50.830;12.082;2022-08-21T00:35:22;3.78;;;3.47;;
11171;SDS011;5642;50.830;12.082;2022-08-21T00:37:52;4.28;;;3.50;;
11171;SDS011;5642;50.830;12.082;2022-08-21T00:40:24;3.58;;;3.28;;
11171;SDS011;5642;50.830;12.082;2022-08-21T00:42:54;3.70;;;3.40;;
11171;SDS011;5642;50.830;12.082;2022-08-21T00:45:21;4.22;;;3.60;;
11171;SDS011;5642;50.830;12.082;2022-08-21T01:49:04;3.15;;;2.88;;
11171;SDS011;5642;50.830;12.082;2022-08-21T01:51:31;3.35;;;3.05;;
11171;SDS011;5642;50.830;12.082;2022-08-21T01:53:57;3.33;;;2.90;;
11171;SDS011;5642;50.830;12.082;2022-08-21T01:56:23;3.60;;;3.30;;
11171;SDS011;5642;50.830;12.082;2022-08-21T01:58:50;3.30;;;3.10;;
11171;SDS011;5642;50.830;12.082;2022-08-21T02:01:16;3.33;;;3.03;;
11171;SDS011;5642;50.830;12.082;2022-08-21T02:03:42;3.38;;;3.08;;
11171;SDS011;5642;50.830;12.082;2022-08-21T02:06:13;3.75;;;3.45;;
11171;SDS011;5642;50.830;12.082;2022-08-21T02:08:43;3.42;;;3.13;;
11171;SDS011;5642;50.830;12.082;2022-08-21T02:11:10;3.35;;;3.15;;
11171;SDS011;5642;50.830;12.082;2022-08-21T02:13:36;3.17;;;2.90;;
11171;SDS011;5642;50.830;12.082;2022-08-21T02:16:02;5.10;;;2.88;;
11171;SDS011;5642;50.830;12.082;2022-08-21T02:18:29;3.00;;;2.80;;
11171;SDS011;5642;50.830;12.082;2022-08-21T02:20:55;3.15;;;2.85;;
11171;SDS011;5642;50.830;12.082;2022-08-21T02:23:23;3.13;;;2.92;;
11171;SDS011;5642;50.830;12.082;2022-08-21T02:25:50;2.92;;;2.72;;
11171;SDS011;5642;50.830;12.082;2022-08-21T02:28:16;3.10;;;2.90;;
11171;SDS011;5642;50.830;12.082;2022-08-21T02:30:44;3.35;;;2.90;;
11171;SDS011;5642;50.830;12.082;2022-08-21T02:33:13;3.50;;;3.20;;
11171;SDS011;5642;50.830;12.082;2022-08-21T02:35:41;2.88;;;2.67;;
11171;SDS011;5642;50.830;12.082;2022-08-21T02:38:09;2.95;;;2.60;;
11171;SDS011;5642;50.830;12.082;2022-08-21T02:40:40;3.60;;;2.90;;
11171;SDS011;5642;50.830;12.082;2022-08-21T02:43:08;3.10;;;2.90;;
11171;SDS011;5642;50.830;12.082;2022-08-21T02:45:36;3.20;;;3.00;;
11171;SDS011;5642;50.830;12.082;2022-08-21T06:50:25;2.90;;;2.70;;
11171;SDS011;5642;50.830;12.082;2022-08-21T06:52:57;3.13;;;2.83;;
11171;SDS011;5642;50.830;12.082;2022-08-21T06:55:29;2.88;;;2.67;;
11171;SDS011;5642;50.830;12.082;2022-08-21T06:57:56;2.50;;;2.30;;
11171;SDS011;5642;50.830;12.082;2022-08-21T07:00:22;2.85;;;2.65;;
11171;SDS011;5642;50.830;12.082;2022-08-21T07:02:48;2.58;;;2.38;;
11171;SDS011;5642;50.830;12.082;2022-08-21T07:05:14;2.60;;;2.40;;
11171;SDS011;5642;50.830;12.082;2022-08-21T07:07:40;2.83;;;2.60;;
11171;SDS011;5642;50.830;12.082;2022-08-21T07:10:06;2.63;;;2.42;;
11171;SDS011;5642;50.830;12.082;2022-08-21T07:12:33;2.88;;;2.58;;
11171;SDS011;5642;50.830;12.082;2022-08-21T07:14:59;2.63;;;2.42;;
11171;SDS011;5642;50.830;12.082;2022-08-21T07:17:25;2.72;;;2.53;;
11171;SDS011;5642;50.830;12.082;2022-08-21T07:19:51;2.72;;;2.53;;
11171;SDS011;5642;50.830;12.082;2022-08-21T07:22:18;2.45;;;2.25;;
11171;SDS011;5642;50.830;12.082;2022-08-21T07:24:46;2.60;;;2.40;;
11171;SDS011;5642;50.830;12.082;2022-08-21T07:27:12;2.42;;;2.22;;
11171;SDS011;5642;50.830;12.082;2022-08-21T07:29:38;2.30;;;2.10;;
11171;SDS011;5642;50.830;12.082;2022-08-21T07:32:06;2.30;;;2.10;;
11171;SDS011;5642;50.830;12.082;2022-08-21T07:34:32;2.03;;;1.92;;
11171;SDS011;5642;50.830;12.082;2022-08-21T07:36:58;2.10;;;1.90;;
11171;SDS011;5642;50.830;12.082;2022-08-21T07:39:25;2.15;;;1.92;;
11171;SDS011;5642;50.830;12.082;2022-08-21T07:41:51;2.92;;;2.10;;
11171;SDS011;5642;50.830;12.082;2022-08-21T07:44:17;2.15;;;1.75;;
11171;SDS011;5642;50.830;12.082;2022-08-21T07:46:43;2.65;;;1.83;;
11171;SDS011;5642;50.830;12.082;2022-08-21T07:49:08;1.75;;;1.65;;
11171;SDS011;5642;50.830;12.082;2022-08-21T09:57:50;1.00;;;1.00;;
11171;SDS011;5642;50.830;12.082;2022-08-21T10:03:12;0.98;;;0.98;;
11171;SDS011;5642;50.830;12.082;2022-08-21T10:06:04;1.23;;;1.10;;
11171;SDS011;5642;50.830;12.082;2022-08-21T10:08:34;0.90;;;0.90;;
11171;SDS011;5642;50.830;12.082;2022-08-21T10:13:37;0.70;;;0.70;;
11171;SDS011;5642;50.830;12.082;2022-08-21T10:16:26;0.80;;;0.80;;
11171;SDS011;5642;50.830;12.082;2022-08-21T10:19:11;1.13;;;0.85;;
11171;SDS011;5642;50.830;12.082;2022-08-21T10:21:50;0.85;;;0.85;;
11171;SDS011;5642;50.830;12.082;2022-08-21T10:24:29;0.80;;;0.80;;
11171;SDS011;5642;50.830;12.082;2022-08-21T10:27:06;0.80;;;0.80;;
11171;SDS011;5642;50.830;12.082;2022-08-21T10:40:40;0.77;;;0.77;;
11171;SDS011;5642;50.830;12.082;2022-08-21T10:46:22;1.02;;;0.88;;
11171;SDS011;5642;50.830;12.082;2022-08-21T10:49:17;1.00;;;0.70;;
11171;SDS011;5642;50.830;12.082;2022-08-21T10:51:56;2.38;;;1.55;;
11171;SDS011;5642;50.830;12.082;2022-08-21T10:54:50;2.30;;;1.65;;
11171;SDS011;5642;50.830;12.082;2022-08-21T10:57:31;1.38;;;1.27;;
11171;SDS011;5642;50.830;12.082;2022-08-21T11:00:07;1.58;;;1.20;;
11171;SDS011;5642;50.830;12.082;2022-08-21T11:02:38;1.63;;;1.00;;
11171;SDS011;5642;50.830;12.082;2022-08-21T11:08:04;0.88;;;0.88;;
11171;SDS011;5642;50.830;12.082;2022-08-21T11:10:45;0.80;;;0.80;;
11171;SDS011;5642;50.830;12.082;2022-08-21T11:13:19;0.70;;;0.70;;
11171;SDS011;5642;50.830;12.082;2022-08-21T11:16:10;1.00;;;0.90;;
11171;SDS011;5642;50.830;12.082;2022-08-21T11:18:49;1.20;;;0.90;;
11171;SDS011;5642;50.830;12.082;2022-08-21T11:24:21;0.88;;;0.88;;
11171;SDS011;5642;50.830;12.082;2022-08-21T11:29:49;0.70;;;0.70;;
11171;SDS011;5642;50.830;12.082;2022-08-21T11:35:46;0.77;;;0.77;;
11171;SDS011;5642;50.830;12.082;2022-08-21T11:41:30;1.17;;;0.77;;
11171;SDS011;5642;50.830;12.082;2022-08-21T11:44:10;0.90;;;0.82;;
11171;SDS011;5642;50.830;12.082;2022-08-21T11:46:49;0.90;;;0.90;;
11171;SDS011;5642;50.830;12.082;2022-08-21T11:52:21;0.80;;;0.77;;
11171;SDS011;5642;50.830;12.082;2022-08-21T13:01:36;1.00;;;0.90;;
11171;SDS011;5642;50.830;12.082;2022-08-21T13:04:10;2.55;;;1.08;;
11171;SDS011;5642;50.830;12.082;2022-08-21T13:06:42;1.00;;;1.00;;
11171;SDS011;5642;50.830;12.082;2022-08-21T13:09:12;1.88;;;1.17;;
11171;SDS011;5642;50.830;12.082;2022-08-21T13:11:43;1.05;;;1.05;;
11171;SDS011;5642;50.830;12.082;2022-08-21T13:14:17;1.08;;;0.95;;
11171;SDS011;5642;50.830;12.082;2022-08-21T13:16:55;1.05;;;1.05;;
11171;SDS011;5642;50.830;12.082;2022-08-21T13:19:23;1.00;;;1.00;;
11171;SDS011;5642;50.830;12.082;2022-08-21T13:21:51;1.30;;;1.10;;
11171;SDS011;5642;50.830;12.082;2022-08-21T13:24:28;0.90;;;0.90;;
11171;SDS011;5642;50.830;12.082;2022-08-21T13:26:55;1.73;;;1.00;;
11171;SDS011;5642;50.830;12.082;2022-08-21T13:29:23;1.13;;;1.10;;
11171;SDS011;5642;50.830;12.082;2022-08-21T13:31:57;1.00;;;1.00;;
11171;SDS011;5642;50.830;12.082;2022-08-21T13:34:28;1.10;;;1.10;;
11171;SDS011;5642;50.830;12.082;2022-08-21T13:37:00;1.10;;;1.02;;
11171;SDS011;5642;50.830;12.082;2022-08-21T13:39:29;1.20;;;1.10;;
11171;SDS011;5642;50.830;12.082;2022-08-21T13:41:57;1.15;;;1.02;;
11171;SDS011;5642;50.830;12.082;2022-08-21T13:44:32;1.40;;;1.30;;
11171;SDS011;5642;50.830;12.082;2022-08-21T13:47:02;1.05;;;1.05;;
11171;SDS011;5642;50.830;12.082;2022-08-21T13:49:31;1.02;;;0.95;;
11171;SDS011;5642;50.830;12.082;2022-08-21T13:52:00;1.50;;;1.40;;
11171;SDS011;5642;50.830;12.082;2022-08-21T13:57:00;1.38;;;1.20;;
11171;SDS011;5642;50.830;12.082;2022-08-21T16:01:57;1.05;;;1.00;;
11171;SDS011;5642;50.830;12.082;2022-08-21T16:04:24;1.55;;;1.23;;
11171;SDS011;5642;50.830;12.082;2022-08-21T16:06:52;2.03;;;0.90;;
11171;SDS011;5642;50.830;12.082;2022-08-21T16:09:19;0.98;;;0.98;;
11171;SDS011;5642;50.830;12.082;2022-08-21T16:11:46;1.13;;;0.95;;
11171;SDS011;5642;50.830;12.082;2022-08-21T16:14:13;1.17;;;1.08;;
11171;SDS011;5642;50.830;12.082;2022-08-21T16:16:41;2.22;;;1.02;;
11171;SDS011;5642;50.830;12.082;2022-08-21T16:19:07;1.27;;;1.10;;
11171;SDS011;5642;50.830;12.082;2022-08-21T16:21:34;1.10;;;1.10;;
11171;SDS011;5642;50.830;12.082;2022-08-21T16:24:01;4.20;;;1.30;;
11171;SDS011;5642;50.830;12.082;2022-08-21T16:26:27;1.48;;;1.00;;
11171;SDS011;5642;50.830;12.082;2022-08-21T16:28:55;1.33;;;1.02;;
11171;SDS011;5642;50.830;12.082;2022-08-21T16:31:24;3.00;;;1.10;;
11171;SDS011;5642;50.830;12.082;2022-08-21T16:33:51;0.82;;;0.82;;
11171;SDS011;5642;50.830;12.082;2022-08-21T16:36:19;1.80;;;0.93;;
11171;SDS011;5642;50.830;12.082;2022-08-21T16:38:47;1.67;;;1.00;;
11171;SDS011;5642;50.830;12.082;2022-08-21T16:41:15;1.63;;;1.13;;
11171;SDS011;5642;50.830;12.082;2022-08-21T16:43:44;0.90;;;0.90;;
11171;SDS011;5642;50.830;12.082;2022-08-21T16:46:11;1.02;;;0.98;;
11171;SDS011;5642;50.830;12.082;2022-08-21T16:48:39;1.10;;;1.00;;
11171;SDS011;5642;50.830;12.082;2022-08-21T16:51:10;0.80;;;0.80;;
11171;SDS011;5642;50.830;12.082;2022-08-21T16:53:37;1.10;;;1.00;;
11171;SDS011;5642;50.830;12.082;2022-08-21T16:56:03;1.33;;;1.10;;
11171;SDS011;5642;50.830;12.082;2022-08-21T16:58:32;0.85;;;0.82;;
11171;SDS011;5642;50.830;12.082;2022-08-21T21:40:20;1.40;;;1.10;;
11171;SDS011;5642;50.830;12.082;2022-08-21T21:59:42;1.58;;;1.40;;
11171;SDS011;5642;50.830;12.082;2022-08-21T22:12:56;1.52;;;1.35;;
11171;SDS011;5642;50.830;12.082;2022-08-21T22:15:25;1.50;;;1.30;;
11171;SDS011;5642;50.830;12.082;2022-08-21T22:17:59;1.80;;;1.42;;
11171;SDS011;5642;50.830;12.082;2022-08-21T22:23:15;1.98;;;1.60;;
11171;SDS011;5642;50.830;12.082;2022-08-21T22:25:46;1.50;;;1.40;;
11171;SDS011;5642;50.830;12.082;2022-08-21T22:28:18;2.72;;;1.38;;
11171;SDS011;5642;50.830;12.082;2022-08-21T22:30:54;4.00;;;1.42;;
11171;SDS011;5642;50.830;12.082;2022-08-21T22:33:34;1.38;;;1.30;;
11171;SDS011;5642;50.830;12.082;2022-08-21T22:36:01;1.30;;;1.20;;
11171;SDS011;5642;50.830;12.082;2022-08-21T22:38:40;1.90;;;1.30;;
11171;SDS011;5642;50.830;12.082;2022-08-21T23:40:12;1.23;;;1.23;;
11171;SDS011;5642;50.830;12.082;2022-08-21T23:51:15;1.45;;;1.35;;
11171;SDS011;5642;50.830;12.082;2022-08-21T23:54:16;1.70;;;1.60;;
11171;SDS011;5642;50.830;12.082;2022-08-21T23:59:25;1.48;;;1.38;;
